createdAt,value
2023-04-26T00:00:43.628Z,101843.69
2023-04-26T00:03:31.762Z,101840.09
2023-04-26T00:06:18.714Z,101841.91
2023-04-26T00:09:05.443Z,101840.19
2023-04-26T00:11:51.645Z,101846.91
2023-04-26T00:14:38.240Z,101848.19
2023-04-26T00:17:24.985Z,101845.63
2023-04-26T00:20:13.491Z,101841.78
2023-04-26T00:23:00.161Z,101841.22
2023-04-26T00:25:46.272Z,101836.88
2023-04-26T00:28:32.655Z,101836.19
2023-04-26T00:31:19.590Z,101822.91
2023-04-26T00:34:06.402Z,101807.28
2023-04-26T00:36:54.201Z,101811.09
2023-04-26T00:39:40.879Z,101800.38
2023-04-26T00:42:28.320Z,101807.16
2023-04-26T00:45:14.671Z,101800.56
2023-04-26T00:48:02.565Z,101801.44
2023-04-26T00:50:49.714Z,101804.88
2023-04-26T00:53:37.822Z,101801.19
2023-04-26T00:56:26.305Z,101799.59
2023-04-26T00:59:12.477Z,101805.13
2023-04-26T01:02:00.067Z,101798.16
2023-04-26T01:04:46.071Z,101799.50
2023-04-26T01:07:33.384Z,101813.91
2023-04-26T01:10:24.079Z,101806.69
2023-04-26T01:13:11.445Z,101808.06
2023-04-26T01:16:00.055Z,101807.31
2023-04-26T01:18:52.335Z,101806.34
2023-04-26T01:21:39.247Z,101811.00
2023-04-26T01:24:26.938Z,101815.75
2023-04-26T01:27:13.610Z,101821.47
2023-04-26T01:30:00.773Z,101817.34
2023-04-26T01:32:47.222Z,101817.34
2023-04-26T01:35:33.640Z,101804.66
2023-04-26T01:38:20.202Z,101797.13
2023-04-26T01:41:08.090Z,101802.47
2023-04-26T01:43:55.440Z,101810.03
2023-04-26T01:46:41.463Z,101792.09
2023-04-26T01:49:28.184Z,101785.19
2023-04-26T01:52:14.606Z,101793.56
2023-04-26T01:55:00.987Z,101788.81
2023-04-26T01:57:48.680Z,101786.63
2023-04-26T02:00:35.002Z,101778.47
2023-04-26T02:03:21.697Z,101772.38
2023-04-26T02:06:10.101Z,101780.53
2023-04-26T02:08:56.478Z,101789.44
2023-04-26T02:11:42.592Z,101779.91
2023-04-26T02:14:30.425Z,101784.44
2023-04-26T02:17:17.239Z,101776.84
2023-04-26T02:20:03.948Z,101781.59
2023-04-26T02:22:50.153Z,101778.56
2023-04-26T02:25:37.298Z,101779.78
2023-04-26T02:28:23.475Z,101774.03
2023-04-26T02:31:11.524Z,101778.78
2023-04-26T02:33:58.144Z,101775.09
2023-04-26T02:36:44.151Z,101775.47
2023-04-26T02:39:30.479Z,101774.47
2023-04-26T02:42:16.847Z,101779.66
2023-04-26T02:45:03.361Z,101776.47
2023-04-26T02:47:51.284Z,101764.94
2023-04-26T02:50:37.982Z,101776.56
2023-04-26T02:53:25.280Z,101778.19
2023-04-26T02:56:11.918Z,101776.47
2023-04-26T02:58:58.386Z,101761.31
2023-04-26T03:01:44.789Z,101764.97
2023-04-26T03:04:36.062Z,101759.44
2023-04-26T03:07:22.530Z,101761.13
2023-04-26T03:10:09.843Z,101764.84
2023-04-26T03:12:56.939Z,101758.88
2023-04-26T03:15:45.890Z,101764.00
2023-04-26T03:18:32.266Z,101760.81
2023-04-26T03:21:20.951Z,101764.72
2023-04-26T03:24:08.069Z,101756.19
2023-04-26T03:26:54.600Z,101753.19
2023-04-26T03:29:43.884Z,101755.13
2023-04-26T03:32:30.983Z,101754.13
2023-04-26T03:35:17.208Z,101750.94
2023-04-26T03:38:04.857Z,101757.59
2023-04-26T03:40:51.184Z,101747.63
2023-04-26T03:43:37.415Z,101752.09
2023-04-26T03:46:23.708Z,101748.69
2023-04-26T03:49:10.292Z,101748.59
2023-04-26T03:51:57.187Z,101753.72
2023-04-26T03:54:45.922Z,101754.44
2023-04-26T03:57:32.290Z,101758.25
2023-04-26T04:00:19.674Z,101756.09
2023-04-26T04:03:07.916Z,101752.38
2023-04-26T04:05:54.631Z,101749.97
2023-04-26T04:08:40.966Z,101759.00
2023-04-26T04:11:29.842Z,101752.56
2023-04-26T04:14:15.912Z,101747.72
2023-04-26T04:17:02.063Z,101753.00
2023-04-26T04:19:49.457Z,101752.75
2023-04-26T04:22:36.145Z,101753.22
2023-04-26T04:25:22.966Z,101751.41
2023-04-26T04:28:11.218Z,101751.78
2023-04-26T04:30:58.499Z,101758.09
2023-04-26T04:33:45.613Z,101757.25
2023-04-26T04:36:32.327Z,101762.84
2023-04-26T04:39:18.943Z,101762.28
2023-04-26T04:42:05.719Z,101764.31
2023-04-26T04:44:53.807Z,101759.38
2023-04-26T04:47:39.853Z,101766.50
2023-04-26T04:50:26.445Z,101770.28
2023-04-26T04:53:13.801Z,101776.13
2023-04-26T04:56:00.778Z,101766.44
2023-04-26T04:58:47.752Z,101774.25
2023-04-26T05:01:37.401Z,101783.94
2023-04-26T05:04:28.745Z,101776.94
2023-04-26T05:07:15.741Z,101783.69
2023-04-26T05:10:02.691Z,101778.50
2023-04-26T05:12:50.542Z,101790.22
2023-04-26T05:15:36.839Z,101782.53
2023-04-26T05:18:24.906Z,101792.53
2023-04-26T05:21:11.436Z,101792.78
2023-04-26T05:23:57.545Z,101791.44
2023-04-26T05:26:43.535Z,101793.50
2023-04-26T05:29:52.396Z,101797.78
2023-04-26T05:32:58.884Z,101804.13
2023-04-26T05:36:09.157Z,101796.94
2023-04-26T05:38:55.553Z,101801.66
2023-04-26T05:41:42.337Z,101807.75
2023-04-26T05:44:28.796Z,101807.47
2023-04-26T05:47:15.699Z,101808.25
2023-04-26T05:50:08.176Z,101804.59
2023-04-26T05:52:55.682Z,101808.06
2023-04-26T05:55:42.270Z,101811.19
2023-04-26T05:58:28.590Z,101816.25
2023-04-26T06:01:15.268Z,101815.09
2023-04-26T06:04:01.789Z,101822.75
2023-04-26T06:06:54.733Z,101827.19
2023-04-26T06:09:42.914Z,101823.56
2023-04-26T06:12:29.669Z,101833.41
2023-04-26T06:15:17.362Z,101830.56
2023-04-26T06:18:05.986Z,101832.00
2023-04-26T06:20:53.090Z,101834.91
2023-04-26T06:23:39.834Z,101831.34
2023-04-26T06:26:27.380Z,101849.72
2023-04-26T06:29:13.756Z,101833.75
2023-04-26T06:32:00.386Z,101845.97
2023-04-26T06:34:47.230Z,101850.50
2023-04-26T06:37:33.893Z,101848.94
2023-04-26T06:40:20.955Z,101854.00
2023-04-26T06:43:09.278Z,101853.34
2023-04-26T06:46:19.664Z,101868.00
2023-04-26T06:49:12.400Z,101857.78
2023-04-26T06:51:59.010Z,101871.19
2023-04-26T06:54:54.015Z,101869.59
2023-04-26T06:57:43.384Z,101868.88
2023-04-26T07:00:31.780Z,101862.81
2023-04-26T07:03:18.148Z,101864.84
2023-04-26T07:06:05.015Z,101881.06
2023-04-26T07:08:51.771Z,101870.84
2023-04-26T07:11:38.037Z,101870.91
2023-04-26T07:14:24.595Z,101869.81
2023-04-26T07:17:12.142Z,101877.13
2023-04-26T07:19:58.353Z,101879.69
2023-04-26T07:22:44.956Z,101885.97
2023-04-26T07:25:31.371Z,101885.31
2023-04-26T07:28:17.880Z,101890.94
2023-04-26T07:31:06.555Z,101896.19
2023-04-26T07:33:56.040Z,101907.25
2023-04-26T07:36:42.732Z,101905.16
2023-04-26T07:39:28.981Z,101911.88
2023-04-26T07:42:16.484Z,101908.16
2023-04-26T07:45:03.885Z,101908.16
2023-04-26T07:47:50.314Z,101906.59
2023-04-26T07:50:39.667Z,101905.97
2023-04-26T07:53:26.391Z,101911.63
2023-04-26T07:56:12.701Z,101923.34
2023-04-26T07:58:59.398Z,101926.91
2023-04-26T08:01:46.076Z,101931.22
2023-04-26T08:04:34.948Z,101933.25
2023-04-26T08:07:23.027Z,101932.72
2023-04-26T08:10:10.982Z,101942.09
2023-04-26T08:13:05.695Z,101939.88
2023-04-26T08:15:52.139Z,101947.38
2023-04-26T08:18:38.689Z,101941.22
2023-04-26T08:21:27.187Z,101943.75
2023-04-26T08:24:16.483Z,101929.88
2023-04-26T08:27:03.700Z,101938.72
2023-04-26T08:29:53.516Z,101951.94
2023-04-26T08:32:40.984Z,101935.91
2023-04-26T08:35:30.839Z,101935.66
2023-04-26T08:38:17.227Z,101933.97
2023-04-26T08:41:06.467Z,101941.06
2023-04-26T08:43:53.324Z,101939.59
2023-04-26T08:46:46.038Z,101941.31
2023-04-26T08:49:41.271Z,101944.25
2023-04-26T08:52:29.554Z,101943.13
2023-04-26T08:55:17.466Z,101937.19
2023-04-26T08:58:06.836Z,101929.53
2023-04-26T09:00:53.804Z,101933.88
2023-04-26T09:03:40.194Z,101935.31
2023-04-26T09:06:28.080Z,101928.47
2023-04-26T09:09:18.717Z,101936.16
2023-04-26T09:12:06.402Z,101937.53
2023-04-26T09:14:54.104Z,101932.56
2023-04-26T09:17:42.001Z,101940.53
2023-04-26T09:20:30.257Z,101936.31
2023-04-26T09:23:17.110Z,101938.63
2023-04-26T09:26:19.252Z,101944.63
2023-04-26T09:29:14.907Z,101944.19
2023-04-26T09:32:03.133Z,101948.19
2023-04-26T09:34:49.836Z,101950.56
2023-04-26T09:37:41.150Z,101941.75
2023-04-26T09:40:36.480Z,101942.53
2023-04-26T09:43:24.379Z,101948.56
2023-04-26T09:46:10.684Z,101955.81
2023-04-26T09:49:04.627Z,101949.78
2023-04-26T09:52:01.290Z,101939.47
2023-04-26T09:54:49.461Z,101941.53
2023-04-26T09:57:44.097Z,101937.38
2023-04-26T10:00:31.070Z,101947.28
2023-04-26T10:03:21.328Z,101945.09
2023-04-26T10:06:10.378Z,101941.69
2023-04-26T10:08:58.050Z,101940.06
2023-04-26T10:11:44.491Z,101947.84
2023-04-26T10:14:32.567Z,101941.22
2023-04-26T10:17:21.874Z,101945.50
2023-04-26T10:20:13.515Z,101941.88
2023-04-26T10:23:06.336Z,101946.03
2023-04-26T10:25:53.438Z,101943.66
2023-04-26T10:29:01.955Z,101942.78
2023-04-26T10:32:12.032Z,101941.09
2023-04-26T10:35:12.584Z,101944.25
2023-04-26T10:38:11.705Z,101940.34
2023-04-26T10:41:36.156Z,101941.69
2023-04-26T10:44:41.240Z,101948.66
2023-04-26T10:47:32.947Z,101946.78
2023-04-26T10:50:20.130Z,101940.44
2023-04-26T10:53:06.989Z,101952.81
2023-04-26T10:55:55.173Z,101947.16
2023-04-26T10:58:42.584Z,101948.28
2023-04-26T11:01:31.447Z,101944.97
2023-04-26T11:04:18.641Z,101947.03
2023-04-26T11:07:05.460Z,101937.84
2023-04-26T11:09:53.555Z,101936.00
2023-04-26T11:12:43.312Z,101930.38
2023-04-26T11:15:31.869Z,101931.31
2023-04-26T11:18:22.002Z,101932.78
2023-04-26T11:21:09.069Z,101922.19
2023-04-26T11:23:56.322Z,101908.13
2023-04-26T11:26:43.011Z,101914.19
2023-04-26T11:29:31.162Z,101907.31
2023-04-26T11:32:18.775Z,101914.72
2023-04-26T11:35:06.611Z,101915.72
2023-04-26T11:37:53.817Z,101909.75
2023-04-26T11:40:41.924Z,101910.38
2023-04-26T11:43:36.964Z,101913.16
2023-04-26T11:46:25.943Z,101912.53
2023-04-26T11:49:12.589Z,101908.25
2023-04-26T11:51:59.672Z,101908.66
2023-04-26T11:54:45.765Z,101914.25
2023-04-26T11:57:33.767Z,101908.81
2023-04-26T12:00:21.306Z,101910.69
2023-04-26T12:03:11.392Z,101913.53
2023-04-26T12:05:57.930Z,101910.03
2023-04-26T12:08:52.300Z,101909.63
2023-04-26T12:11:39.115Z,101915.19
2023-04-26T12:14:25.743Z,101908.91
2023-04-26T12:17:12.002Z,101909.28
2023-04-26T12:19:59.599Z,101907.38
2023-04-26T12:22:59.055Z,101903.34
2023-04-26T12:25:55.698Z,101910.88
2023-04-26T12:28:42.675Z,101913.34
2023-04-26T12:31:30.643Z,101907.28
2023-04-26T12:34:17.362Z,101905.66
2023-04-26T12:37:05.326Z,101917.59
2023-04-26T12:39:52.538Z,101908.22
2023-04-26T12:42:39.072Z,101911.66
2023-04-26T12:45:26.993Z,101907.97
2023-04-26T12:48:13.732Z,101913.28
2023-04-26T12:51:01.552Z,101909.91
2023-04-26T12:53:50.956Z,101903.06
2023-04-26T12:56:40.866Z,101906.19
2023-04-26T12:59:29.109Z,101908.44
2023-04-26T13:02:16.348Z,101913.59
2023-04-26T13:05:06.378Z,101908.31
2023-04-26T13:07:53.003Z,101904.50
2023-04-26T13:10:40.554Z,101907.19
2023-04-26T13:13:39.904Z,101907.06
2023-04-26T13:16:30.110Z,101906.66
2023-04-26T13:19:17.573Z,101903.81
2023-04-26T13:22:04.824Z,101909.38
2023-04-26T13:24:51.536Z,101904.91
2023-04-26T13:27:39.071Z,101902.78
2023-04-26T13:30:25.867Z,101897.91
2023-04-26T13:33:12.476Z,101892.34
2023-04-26T13:35:59.229Z,101897.84
2023-04-26T13:38:46.480Z,101902.41
2023-04-26T13:41:34.896Z,101905.91
2023-04-26T13:44:22.587Z,101915.75
2023-04-26T13:47:09.575Z,101902.09
2023-04-26T13:49:55.739Z,101902.63
2023-04-26T13:52:43.046Z,101909.28
2023-04-26T13:55:30.994Z,101906.09
2023-04-26T13:58:18.139Z,101910.78
2023-04-26T14:01:06.536Z,101916.03
2023-04-26T14:03:55.934Z,101908.47
2023-04-26T14:06:44.838Z,101911.47
2023-04-26T14:09:31.416Z,101911.53
2023-04-26T14:12:18.349Z,101913.66
2023-04-26T14:15:06.230Z,101909.72
2023-04-26T14:17:55.222Z,101913.22
2023-04-26T14:20:41.956Z,101908.94
2023-04-26T14:23:28.587Z,101909.78
2023-04-26T14:26:14.714Z,101909.13
2023-04-26T14:29:02.272Z,101916.59
2023-04-26T14:31:48.433Z,101906.78
2023-04-26T14:34:39.867Z,101902.53
2023-04-26T14:37:26.108Z,101903.44
2023-04-26T14:40:13.773Z,101908.41
2023-04-26T14:43:00.921Z,101904.19
2023-04-26T14:45:47.783Z,101909.69
2023-04-26T14:48:34.238Z,101905.53
2023-04-26T14:51:22.689Z,101908.94
2023-04-26T14:54:09.277Z,101899.03
2023-04-26T14:56:56.960Z,101902.53
2023-04-26T14:59:43.316Z,101894.72
2023-04-26T15:02:29.725Z,101890.31
2023-04-26T15:05:16.220Z,101897.88
2023-04-26T15:08:04.700Z,101891.22
2023-04-26T15:10:51.249Z,101899.22
2023-04-26T15:13:37.724Z,101890.31
2023-04-26T15:16:24.385Z,101892.47
2023-04-26T15:19:11.410Z,101885.47
2023-04-26T15:21:57.796Z,101891.59
2023-04-26T15:24:46.118Z,101883.97
2023-04-26T15:27:35.509Z,101883.25
2023-04-26T15:30:22.247Z,101886.84
2023-04-26T15:33:10.306Z,101885.56
2023-04-26T15:35:57.411Z,101884.69
2023-04-26T15:38:45.294Z,101881.75
2023-04-26T15:41:33.367Z,101883.69
2023-04-26T15:44:19.828Z,101886.13
2023-04-26T15:47:07.060Z,101882.59
2023-04-26T15:49:54.749Z,101882.19
2023-04-26T15:52:41.964Z,101889.94
2023-04-26T15:55:28.396Z,101885.59
2023-04-26T15:58:16.046Z,101892.00
2023-04-26T16:01:02.365Z,101888.31
2023-04-26T16:03:49.936Z,101887.44
2023-04-26T16:06:36.470Z,101891.59
2023-04-26T16:09:25.663Z,101890.56
2023-04-26T16:12:12.713Z,101899.84
2023-04-26T16:15:01.312Z,101895.16
2023-04-26T16:17:47.889Z,101896.38
2023-04-26T16:20:35.220Z,101899.91
2023-04-26T16:23:24.213Z,101900.59
2023-04-26T16:26:10.515Z,101897.84
2023-04-26T16:28:56.871Z,101897.22
2023-04-26T16:31:45.521Z,101901.31
2023-04-26T16:34:34.350Z,101899.31
2023-04-26T16:37:23.816Z,101907.44
2023-04-26T16:40:11.410Z,101894.88
2023-04-26T16:42:57.674Z,101891.88
2023-04-26T16:46:00.371Z,101887.25
2023-04-26T16:48:54.188Z,101887.06
2023-04-26T16:51:44.637Z,101897.13
2023-04-26T16:54:31.807Z,101885.41
2023-04-26T16:57:19.033Z,101891.19
2023-04-26T17:00:08.340Z,101884.22
2023-04-26T17:02:55.634Z,101888.28
2023-04-26T17:05:51.173Z,101899.25
2023-04-26T17:08:38.074Z,101900.66
2023-04-26T17:11:27.163Z,101900.16
2023-04-26T17:14:14.702Z,101898.34
2023-04-26T17:17:03.176Z,101902.41
2023-04-26T17:19:49.724Z,101902.72
2023-04-26T17:22:37.547Z,101911.56
2023-04-26T17:25:24.443Z,101904.94
2023-04-26T17:28:15.194Z,101904.44
2023-04-26T17:31:01.849Z,101902.91
2023-04-26T17:33:48.250Z,101904.44
2023-04-26T17:36:37.533Z,101901.53
2023-04-26T17:39:25.058Z,101907.84
2023-04-26T17:42:11.578Z,101905.97
2023-04-26T17:45:00.629Z,101900.69
2023-04-26T17:47:47.134Z,101921.22
2023-04-26T17:50:33.470Z,101917.50
2023-04-26T17:53:20.014Z,101920.88
2023-04-26T17:56:09.936Z,101924.91
2023-04-26T17:58:57.248Z,101918.88
2023-04-26T18:01:43.814Z,101918.00
2023-04-26T18:04:30.678Z,101921.06
2023-04-26T18:07:19.450Z,101925.97
2023-04-26T18:10:07.595Z,101931.03
2023-04-26T18:12:55.430Z,101923.25
2023-04-26T18:15:41.747Z,101925.09
2023-04-26T18:18:28.423Z,101931.56
2023-04-26T18:21:15.033Z,101939.03
2023-04-26T18:24:01.472Z,101932.72
2023-04-26T18:26:48.261Z,101932.19
2023-04-26T18:29:36.314Z,101935.53
2023-04-26T18:32:22.832Z,101937.13
2023-04-26T18:35:09.852Z,101942.78
2023-04-26T18:37:56.062Z,101941.94
2023-04-26T18:40:44.244Z,101935.00
2023-04-26T18:43:30.856Z,101937.19
2023-04-26T18:46:18.334Z,101939.44
2023-04-26T18:49:04.856Z,101941.16
2023-04-26T18:51:51.499Z,101945.41
2023-04-26T18:54:38.932Z,101943.75
2023-04-26T18:57:26.822Z,101952.38
2023-04-26T19:00:14.221Z,101951.50
2023-04-26T19:03:02.464Z,101945.88
2023-04-26T19:05:49.036Z,101948.38
2023-04-26T19:08:35.951Z,101949.69
2023-04-26T19:11:22.228Z,101952.91
2023-04-26T19:14:09.004Z,101955.88
2023-04-26T19:16:56.262Z,101958.34
2023-04-26T19:19:43.802Z,101962.00
2023-04-26T19:22:31.124Z,101964.56
2023-04-26T19:25:20.387Z,101964.63
2023-04-26T19:28:06.796Z,101968.63
2023-04-26T19:30:54.152Z,101968.28
2023-04-26T19:33:40.886Z,101977.78
2023-04-26T19:36:28.736Z,101976.97
2023-04-26T19:39:16.127Z,101976.16
2023-04-26T19:42:03.276Z,101974.00
2023-04-26T19:44:49.900Z,101975.69
2023-04-26T19:47:36.108Z,101975.06
2023-04-26T19:50:22.283Z,101979.13
2023-04-26T19:53:10.682Z,101975.81
2023-04-26T19:55:57.230Z,101984.00
2023-04-26T19:58:43.738Z,101976.81
2023-04-26T20:01:30.674Z,101986.53
2023-04-26T20:04:17.587Z,101985.75
2023-04-26T20:07:04.924Z,101982.13
2023-04-26T20:09:53.019Z,101987.06
2023-04-26T20:12:40.381Z,101984.72
2023-04-26T20:15:26.768Z,101987.34
2023-04-26T20:18:13.192Z,101991.09
2023-04-26T20:20:59.593Z,101981.34
2023-04-26T20:23:46.480Z,101981.28
2023-04-26T20:26:34.016Z,101976.66
2023-04-26T20:29:20.422Z,101983.09
2023-04-26T20:32:06.856Z,101987.66
2023-04-26T20:34:53.112Z,101988.84
2023-04-26T20:37:39.988Z,101990.38
2023-04-26T20:40:26.504Z,101989.13
2023-04-26T20:43:13.994Z,101984.75
2023-04-26T20:46:00.495Z,101987.59
2023-04-26T20:48:46.970Z,101988.59
2023-04-26T20:51:34.082Z,101980.06
2023-04-26T20:54:20.386Z,101981.66
2023-04-26T20:57:06.637Z,101976.38
2023-04-26T20:59:54.314Z,101987.63
2023-04-26T21:02:40.894Z,101986.19
2023-04-26T21:05:27.240Z,101985.03
2023-04-26T21:08:13.695Z,101992.28
2023-04-26T21:10:59.833Z,101987.88
2023-04-26T21:13:48.090Z,101993.56
2023-04-26T21:16:36.124Z,101995.69
2023-04-26T21:19:22.439Z,101992.56
2023-04-26T21:22:09.367Z,101983.75
2023-04-26T21:24:55.661Z,101987.56
2023-04-26T21:27:42.103Z,101991.97
2023-04-26T21:30:28.398Z,101991.13
2023-04-26T21:33:16.767Z,101992.81
2023-04-26T21:36:03.636Z,101988.25
2023-04-26T21:38:49.961Z,101990.50
2023-04-26T21:41:36.306Z,101995.56
2023-04-26T21:44:22.447Z,101996.81
2023-04-26T21:47:08.756Z,101991.22
2023-04-26T21:49:56.669Z,101994.88
2023-04-26T21:52:42.949Z,101992.19
2023-04-26T21:55:28.925Z,101993.84
2023-04-26T21:58:15.124Z,101992.25
2023-04-26T22:01:09.224Z,101986.75
2023-04-26T22:03:55.717Z,101991.72
2023-04-26T22:06:43.510Z,101990.31
2023-04-26T22:09:29.882Z,101995.69
2023-04-26T22:12:16.411Z,101991.41
2023-04-26T22:15:02.673Z,101994.56
2023-04-26T22:17:48.991Z,101993.28
2023-04-26T22:20:35.567Z,101997.09
2023-04-26T22:23:23.103Z,101998.06
2023-04-26T22:26:09.169Z,102001.06
2023-04-26T22:28:55.640Z,101995.09
2023-04-26T22:31:42.037Z,101992.19
2023-04-26T22:34:28.576Z,101991.63
2023-04-26T22:37:21.154Z,101997.13
2023-04-26T22:40:11.720Z,101991.88
2023-04-26T22:42:58.047Z,102002.19
2023-04-26T22:45:44.331Z,102003.63
2023-04-26T22:48:30.806Z,101997.88
2023-04-26T22:51:17.279Z,101996.19
2023-04-26T22:54:04.212Z,101998.50
2023-04-26T22:56:51.879Z,102006.69
2023-04-26T22:59:38.603Z,102008.53
2023-04-26T23:02:24.925Z,102002.25
2023-04-26T23:05:11.915Z,101999.47
2023-04-26T23:07:58.467Z,102003.25
2023-04-26T23:10:44.662Z,102015.56
2023-04-26T23:13:32.204Z,102009.84
2023-04-26T23:16:18.674Z,102009.19
2023-04-26T23:19:04.963Z,102008.75
2023-04-26T23:21:51.535Z,102016.09
2023-04-26T23:24:37.926Z,102015.25
2023-04-26T23:27:24.715Z,102017.06
2023-04-26T23:30:13.870Z,102029.53
2023-04-26T23:33:00.102Z,102022.81
2023-04-26T23:35:46.420Z,102025.88
2023-04-26T23:38:32.767Z,102024.03
2023-04-26T23:41:19.169Z,102025.00
2023-04-26T23:44:05.754Z,102035.13
2023-04-26T23:46:53.435Z,102032.31
2023-04-26T23:49:39.870Z,102036.56
2023-04-26T23:52:26.014Z,102038.41
2023-04-26T23:55:12.477Z,102042.19
2023-04-26T23:57:58.868Z,102042.66
